Time;durP1;ratioP1;P1;durP2;ratioP2;P2;SDS_P1;SDS_P2;PMS_P1;PMS_P2;Temp;Humidity;BMP_temperature;BMP_pressure;BME280_temperature;BME280_humidity;BME280_pressure;Samples;Min_cycle;Max_cycle;Signal;HPM_P1;HPM_P2
2021/12/14 00:02:10;;;;;;;21.70;18.30;;;;;;;;;;4994429;27;98662;-73
2021/12/14 00:04:37;;;;;;;22.13;18.02;;;;;;;;;;4990623;28;100302;-72
2021/12/14 00:07:05;;;;;;;24.38;19.55;;;;;;;;;;5005476;28;101067;-72
2021/12/14 00:09:36;;;;;;;21.50;18.80;;;;;;;;;;5001841;28;99221;-72
2021/12/14 00:15:04;;;;;;;23.80;19.42;;;;;;;;;;5004374;28;98878;-72
2021/12/14 00:17:39;;;;;;;23.55;19.30;;;;;;;;;;5009305;28;99695;-73
2021/12/14 00:20:09;;;;;;;26.83;20.58;;;;;;;;;;4997737;28;100150;-72
2021/12/14 00:24:06;;;;;;;24.08;20.08;;;;;;;;;;4997047;28;99585;-72
2021/12/14 00:25:28;;;;;;;28.85;20.90;;;;;;;;;;5001852;28;100361;-72
2021/12/14 00:27:54;;;;;;;;;;;;;;;;;;5009216;28;100376;-72
2021/12/14 00:30:20;;;;;;;24.98;19.08;;;;;;;;;;5007086;28;119063;-72
2021/12/14 00:32:47;;;;;;;24.00;19.17;;;;;;;;;;5008577;28;102394;-72
2021/12/14 00:35:14;;;;;;;25.42;19.55;;;;;;;;;;5008709;28;101662;-72
2021/12/14 00:37:42;;;;;;;25.02;20.58;;;;;;;;;;5001761;28;98963;-72
2021/12/14 00:40:12;;;;;;;27.17;20.77;;;;;;;;;;4998047;28;101007;-72
2021/12/14 00:42:39;;;;;;;26.38;20.75;;;;;;;;;;5007091;28;98587;-72
2021/12/14 00:45:06;;;;;;;23.92;19.92;;;;;;;;;;5006615;28;100100;-72
2021/12/14 00:47:32;;;;;;;24.23;19.65;;;;;;;;;;5008101;28;101507;-72
2021/12/14 00:49:59;;;;;;;25.92;20.48;;;;;;;;;;4995817;28;99175;-72
2021/12/14 00:52:25;;;;;;;27.27;21.50;;;;;;;;;;4983208;28;99039;-72
2021/12/14 00:54:52;;;;;;;25.63;21.00;;;;;;;;;;5007877;28;100915;-72
2021/12/14 00:57:18;;;;;;;27.50;20.40;;;;;;;;;;5006769;28;99081;-72
2021/12/14 00:59:44;;;;;;;24.80;20.10;;;;;;;;;;5009280;28;99068;-73
2021/12/14 01:02:13;;;;;;;24.75;21.13;;;;;;;;;;4999577;28;98751;-73
2021/12/14 01:04:45;;;;;;;25.48;21.33;;;;;;;;;;4996653;28;101597;-72
2021/12/14 01:07:12;;;;;;;27.05;20.65;;;;;;;;;;4998142;28;101903;-72
2021/12/14 01:09:42;;;;;;;26.88;21.80;;;;;;;;;;4986977;28;98659;-72
2021/12/14 01:12:14;;;;;;;25.58;21.13;;;;;;;;;;4993426;28;100208;-72
2021/12/14 01:14:48;;;;;;;26.33;21.70;;;;;;;;;;5006704;28;101450;-72
2021/12/14 01:17:27;;;;;;;30.20;22.67;;;;;;;;;;5003738;28;100139;-72
2021/12/14 01:19:59;;;;;;;24.17;21.55;;;;;;;;;;4998934;28;101085;-72
2021/12/14 01:25:13;;;;;;;26.80;22.25;;;;;;;;;;4984513;28;99420;-72
2021/12/14 01:27:57;;;;;;;28.40;21.95;;;;;;;;;;5002588;28;99663;-72
2021/12/14 01:30:33;;;;;;;25.33;20.23;;;;;;;;;;5004225;28;98950;-72
2021/12/14 01:33:03;;;;;;;29.85;21.95;;;;;;;;;;4987029;28;100911;-72
2021/12/14 01:35:32;;;;;;;25.75;21.40;;;;;;;;;;4989846;28;101719;-72
2021/12/14 01:38:16;;;;;;;26.25;21.88;;;;;;;;;;4991355;28;99362;-72
2021/12/14 01:40:54;;;;;;;24.30;20.73;;;;;;;;;;4995534;28;102091;-72
2021/12/14 01:43:28;;;;;;;26.73;21.90;;;;;;;;;;5002655;28;100286;-72
2021/12/14 01:45:57;;;;;;;25.38;21.20;;;;;;;;;;4986071;28;99328;-72
2021/12/14 01:48:24;;;;;;;27.02;22.35;;;;;;;;;;4980541;28;101528;-72
2021/12/14 01:51:20;;;;;;;26.55;21.85;;;;;;;;;;4968050;28;98655;-72
2021/12/14 01:53:59;;;;;;;25.52;22.13;;;;;;;;;;4986938;28;101583;-72
2021/12/14 01:56:27;;;;;;;28.02;22.42;;;;;;;;;;4986282;28;99184;-72
2021/12/14 01:58:57;;;;;;;31.60;24.85;;;;;;;;;;5001921;28;99050;-72
2021/12/14 02:01:36;;;;;;;26.48;22.85;;;;;;;;;;4998669;28;100836;-72
2021/12/14 02:04:08;;;;;;;27.13;22.85;;;;;;;;;;5004505;28;101063;-72
2021/12/14 02:06:34;;;;;;;32.17;23.52;;;;;;;;;;4999477;28;100190;-72
2021/12/14 02:09:01;;;;;;;26.25;23.33;;;;;;;;;;4986212;28;100194;-72
2021/12/14 02:11:32;;;;;;;31.30;24.38;;;;;;;;;;4986309;28;99360;-72
2021/12/14 02:13:59;;;;;;;29.35;24.77;;;;;;;;;;4985431;28;103857;-72
2021/12/14 02:16:26;;;;;;;31.75;26.13;;;;;;;;;;5002494;28;101679;-72
2021/12/14 02:18:58;;;;;;;27.63;24.25;;;;;;;;;;4996799;28;100161;-72
2021/12/14 02:21:25;;;;;;;31.88;25.33;;;;;;;;;;4992533;28;101548;-72
2021/12/14 02:23:53;;;;;;;30.38;24.98;;;;;;;;;;4999843;28;101981;-72
2021/12/14 02:26:22;;;;;;;31.35;25.00;;;;;;;;;;5003351;28;98611;-72
2021/12/14 02:28:49;;;;;;;34.60;25.50;;;;;;;;;;4996447;28;101326;-72
2021/12/14 02:31:18;;;;;;;37.22;26.35;;;;;;;;;;5003703;28;98630;-72
2021/12/14 02:33:46;;;;;;;40.78;27.00;;;;;;;;;;5006830;28;101561;-72
2021/12/14 02:36:18;;;;;;;33.45;26.45;;;;;;;;;;4994951;28;102270;-72
2021/12/14 02:38:45;;;;;;;33.47;27.15;;;;;;;;;;4996270;28;100366;-72
2021/12/14 02:41:13;;;;;;;33.42;28.08;;;;;;;;;;5006226;28;99071;-72
2021/12/14 02:43:52;;;;;;;37.20;28.23;;;;;;;;;;4997360;28;101762;-72
2021/12/14 02:46:25;;;;;;;35.63;27.83;;;;;;;;;;4983085;28;98592;-72
2021/12/14 02:48:54;;;;;;;36.90;28.98;;;;;;;;;;4996989;28;102398;-72
2021/12/14 02:51:28;;;;;;;35.92;29.17;;;;;;;;;;4986670;28;98629;-73
2021/12/14 02:53:56;;;;;;;39.08;29.30;;;;;;;;;;4987007;28;101572;-72
2021/12/14 02:56:26;;;;;;;37.90;29.08;;;;;;;;;;4995830;28;99435;-71
2021/12/14 02:59:06;;;;;;;37.75;29.20;;;;;;;;;;5005096;28;98639;-72
2021/12/14 03:01:34;;;;;;;41.80;31.55;;;;;;;;;;4988378;28;99456;-71
2021/12/14 03:04:03;;;;;;;39.20;31.45;;;;;;;;;;5015990;27;99701;-71
2021/12/14 03:06:32;;;;;;;37.35;30.77;;;;;;;;;;5002357;28;99848;-72
2021/12/14 03:09:17;;;;;;;44.28;32.03;;;;;;;;;;5019674;27;101001;-72
2021/12/14 03:11:43;;;;;;;38.83;30.80;;;;;;;;;;4997827;28;99386;-72
2021/12/14 03:14:10;;;;;;;42.50;31.33;;;;;;;;;;5006193;28;99066;-71
2021/12/14 03:16:37;;;;;;;44.95;32.28;;;;;;;;;;4992277;28;100154;-73
2021/12/14 03:19:08;;;;;;;40.20;33.20;;;;;;;;;;5006042;28;97729;-73
2021/12/14 03:21:37;;;;;;;40.80;31.52;;;;;;;;;;4986904;28;100543;-72
2021/12/14 03:24:05;;;;;;;42.20;33.97;;;;;;;;;;4993676;28;101807;-72
2021/12/14 03:26:33;;;;;;;39.13;33.25;;;;;;;;;;5005530;28;99685;-72
2021/12/14 03:29:03;;;;;;;45.22;34.33;;;;;;;;;;4994939;28;99929;-72
2021/12/14 03:31:32;;;;;;;41.60;33.88;;;;;;;;;;4985128;28;100448;-72
2021/12/14 03:34:15;;;;;;;40.47;33.08;;;;;;;;;;5003541;28;99080;-72
2021/12/14 03:36:44;;;;;;;45.50;32.33;;;;;;;;;;5006878;28;100942;-73
2021/12/14 03:39:11;;;;;;;42.92;32.92;;;;;;;;;;5019354;27;98980;-72
2021/12/14 03:41:37;;;;;;;45.38;34.38;;;;;;;;;;4989157;28;100900;-72
2021/12/14 03:44:09;;;;;;;44.05;34.42;;;;;;;;;;4993145;28;99633;-72
2021/12/14 03:46:44;;;;;;;42.45;33.88;;;;;;;;;;5009317;28;98986;-72
2021/12/14 03:49:11;;;;;;;40.53;33.40;;;;;;;;;;5012677;28;101200;-72
2021/12/14 03:51:38;;;;;;;43.58;34.13;;;;;;;;;;5007063;28;102612;-72
2021/12/14 03:54:05;;;;;;;37.15;32.33;;;;;;;;;;5015517;28;98627;-72
2021/12/14 03:56:33;;;;;;;39.70;33.33;;;;;;;;;;4992758;28;100597;-72
2021/12/14 03:59:00;;;;;;;46.67;32.30;;;;;;;;;;4988959;28;99968;-72
2021/12/14 04:01:31;;;;;;;42.53;33.75;;;;;;;;;;5009579;28;100171;-72
2021/12/14 04:04:09;;;;;;;47.28;32.60;;;;;;;;;;5004262;28;101749;-72
2021/12/14 04:06:37;;;;;;;38.00;31.63;;;;;;;;;;4984240;28;99138;-71
2021/12/14 04:09:04;;;;;;;44.15;33.47;;;;;;;;;;4982270;28;99277;-71
2021/12/14 04:11:32;;;;;;;42.83;32.83;;;;;;;;;;5028279;27;100084;-72
2021/12/14 04:13:59;;;;;;;40.05;32.97;;;;;;;;;;4991391;28;98636;-73
2021/12/14 04:16:35;;;;;;;39.03;31.42;;;;;;;;;;5000260;28;100462;-72
2021/12/14 04:19:04;;;;;;;43.13;31.63;;;;;;;;;;4994331;28;99195;-72
2021/12/14 04:21:33;;;;;;;37.15;32.42;;;;;;;;;;4990819;28;101742;-72
2021/12/14 04:24:01;;;;;;;39.42;32.75;;;;;;;;;;5022801;27;100766;-72
2021/12/14 04:26:29;;;;;;;40.53;31.92;;;;;;;;;;4989446;28;99411;-72
2021/12/14 04:28:56;;;;;;;37.00;30.60;;;;;;;;;;4991239;28;101530;-72
2021/12/14 04:31:23;;;;;;;41.75;31.52;;;;;;;;;;4988707;28;102218;-72
2021/12/14 04:33:54;;;;;;;39.70;31.67;;;;;;;;;;4997453;28;99439;-71
2021/12/14 04:36:23;;;;;;;37.78;32.00;;;;;;;;;;5006487;28;100740;-72
2021/12/14 04:38:56;;;;;;;40.17;31.33;;;;;;;;;;5011888;28;102074;-72
2021/12/14 04:52:31;;;;;;;39.95;31.70;;;;;;;;;;5000120;28;101526;-72
2021/12/14 04:55:00;;;;;;;39.55;30.95;;;;;;;;;;5041172;27;98654;-72
2021/12/14 04:57:27;;;;;;;40.17;30.30;;;;;;;;;;4996183;28;100926;-71
2021/12/14 04:59:58;;;;;;;39.45;29.42;;;;;;;;;;4990800;28;101211;-72
2021/12/14 05:02:32;;;;;;;39.42;31.27;;;;;;;;;;4995841;28;99093;-72
2021/12/14 05:05:15;;;;;;;39.45;30.73;;;;;;;;;;4994767;28;99332;-72
2021/12/14 05:09:19;;;;;;;43.65;31.70;;;;;;;;;;4988318;28;101301;-72
2021/12/14 05:10:35;;;;;;;39.63;30.55;;;;;;;;;;5002519;28;100464;-72
2021/12/14 05:13:02;;;;;;;39.95;29.45;;;;;;;;;;5004304;28;99290;-72
2021/12/14 05:15:30;;;;;;;37.40;29.52;;;;;;;;;;4995256;28;98658;-72
2021/12/14 05:17:58;;;;;;;35.88;30.33;;;;;;;;;;4985269;28;101582;-72
2021/12/14 05:20:25;;;;;;;36.25;29.40;;;;;;;;;;5000035;28;101649;-72
2021/12/14 05:22:53;;;;;;;42.17;32.00;;;;;;;;;;4976700;28;99430;-71
2021/12/14 05:25:25;;;;;;;38.08;29.30;;;;;;;;;;5013148;28;99048;-72
2021/12/14 05:28:00;;;;;;;36.45;29.58;;;;;;;;;;4990847;28;100895;-72
2021/12/14 05:30:31;;;;;;;35.37;29.67;;;;;;;;;;4986267;28;101057;-72
2021/12/14 05:33:08;;;;;;;38.70;30.00;;;;;;;;;;4993735;28;100993;-73
2021/12/14 05:35:37;;;;;;;32.95;28.50;;;;;;;;;;5003657;28;98615;-72
2021/12/14 05:38:21;;;;;;;32.38;27.27;;;;;;;;;;4991881;28;99940;-72
2021/12/14 05:41:10;;;;;;;31.65;27.33;;;;;;;;;;5005827;28;99618;-72
2021/12/14 05:43:43;;;;;;;37.50;28.17;;;;;;;;;;4996443;28;98646;-73
2021/12/14 05:46:19;;;;;;;31.98;26.70;;;;;;;;;;4995601;28;102931;-71
2021/12/14 05:49:01;;;;;;;31.27;26.08;;;;;;;;;;5007472;28;98603;-71
2021/12/14 05:51:31;;;;;;;31.25;25.70;;;;;;;;;;5005346;28;100059;-71
2021/12/14 05:53:58;;;;;;;30.85;26.15;;;;;;;;;;5007039;28;102048;-72
2021/12/14 05:56:24;;;;;;;30.80;26.48;;;;;;;;;;4995802;28;100200;-71
2021/12/14 05:58:55;;;;;;;30.08;25.67;;;;;;;;;;4988758;28;101013;-72
2021/12/14 06:01:24;;;;;;;28.35;25.23;;;;;;;;;;4989232;28;99284;-72
2021/12/14 06:03:53;;;;;;;28.98;25.67;;;;;;;;;;4998496;28;100473;-72
2021/12/14 06:06:24;;;;;;;27.80;24.67;;;;;;;;;;5002916;28;101500;-72
2021/12/14 06:08:59;;;;;;;29.48;24.85;;;;;;;;;;5004378;28;101660;-72
2021/12/14 06:11:31;;;;;;;28.20;23.67;;;;;;;;;;4987906;28;99467;-72
2021/12/14 06:13:58;;;;;;;29.27;25.27;;;;;;;;;;5002874;27;99098;-72
2021/12/14 06:16:30;;;;;;;30.10;24.85;;;;;;;;;;5022272;27;97872;-72
2021/12/14 06:19:12;;;;;;;30.10;25.30;;;;;;;;;;4986781;28;101198;-72
2021/12/14 06:21:39;;;;;;;27.85;24.83;;;;;;;;;;4997961;28;102620;-72
2021/12/14 06:24:06;;;;;;;30.75;25.70;;;;;;;;;;5006287;28;99335;-72
2021/12/14 06:26:48;;;;;;;35.90;25.13;;;;;;;;;;5000735;28;101244;-72
2021/12/14 06:29:29;;;;;;;29.27;26.10;;;;;;;;;;5006468;28;99235;-71
2021/12/14 06:31:58;;;;;;;34.70;25.58;;;;;;;;;;5010129;28;99626;-72
2021/12/14 06:34:29;;;;;;;29.10;25.25;;;;;;;;;;5002728;28;100201;-71
2021/12/14 06:37:19;;;;;;;29.75;24.88;;;;;;;;;;5002444;28;98735;-71
2021/12/14 06:40:05;;;;;;;27.02;24.02;;;;;;;;;;4996336;28;101539;-72
2021/12/14 06:42:33;;;;;;;33.78;25.77;;;;;;;;;;4987814;28;98675;-72
2021/12/14 06:45:29;;;;;;;30.77;25.95;;;;;;;;;;4992324;28;98733;-71
2021/12/14 06:47:58;;;;;;;32.30;25.23;;;;;;;;;;5005471;28;99050;-71
2021/12/14 06:50:26;;;;;;;30.42;25.52;;;;;;;;;;5004213;28;101134;-72
2021/12/14 06:52:55;;;;;;;29.30;25.38;;;;;;;;;;5004458;28;98559;-72
2021/12/14 06:55:42;;;;;;;29.98;24.83;;;;;;;;;;5004594;28;98755;-72
2021/12/14 06:58:31;;;;;;;30.83;24.88;;;;;;;;;;4983473;28;98555;-72
2021/12/14 07:01:02;;;;;;;27.52;23.35;;;;;;;;;;5005561;28;101219;-72
2021/12/14 07:03:55;;;;;;;31.48;25.13;;;;;;;;;;4995845;28;100285;-72
2021/12/14 07:06:36;;;;;;;29.30;24.40;;;;;;;;;;4991097;28;99620;-72
2021/12/14 07:09:08;;;;;;;31.73;24.90;;;;;;;;;;5000597;28;100739;-72
2021/12/14 07:11:35;;;;;;;31.27;24.25;;;;;;;;;;4987435;28;100146;-72
2021/12/14 07:14:05;;;;;;;31.42;24.73;;;;;;;;;;5004055;28;99101;-72
2021/12/14 07:16:33;;;;;;;29.00;23.52;;;;;;;;;;5002264;28;101561;-72
2021/12/14 07:19:02;;;;;;;32.80;25.88;;;;;;;;;;4995147;28;99375;-72
2021/12/14 07:21:33;;;;;;;31.27;25.33;;;;;;;;;;5003611;28;100187;-72
2021/12/14 07:24:20;;;;;;;27.88;23.67;;;;;;;;;;5004859;28;99664;-72
2021/12/14 07:26:46;;;;;;;28.55;22.98;;;;;;;;;;4994341;28;100664;-72
2021/12/14 07:29:19;;;;;;;29.85;26.55;;;;;;;;;;5010879;28;99093;-72
2021/12/14 07:31:46;;;;;;;33.80;25.73;;;;;;;;;;5001125;28;99675;-72
2021/12/14 07:34:13;;;;;;;33.05;26.02;;;;;;;;;;4994039;28;97877;-72
2021/12/14 07:36:39;;;;;;;32.03;25.17;;;;;;;;;;4994499;28;100827;-73
2021/12/14 07:39:05;;;;;;;32.17;25.27;;;;;;;;;;4996418;28;100183;-72
2021/12/14 07:41:36;;;;;;;30.00;24.02;;;;;;;;;;5003677;28;99938;-72
2021/12/14 07:44:11;;;;;;;29.70;25.02;;;;;;;;;;5008473;28;101807;-72
2021/12/14 07:46:56;;;;;;;32.58;25.33;;;;;;;;;;5006374;28;98557;-72
2021/12/14 07:49:33;;;;;;;30.23;25.67;;;;;;;;;;5009854;28;99377;-71
2021/12/14 07:52:09;;;;;;;28.23;24.20;;;;;;;;;;4993619;28;100548;-71
2021/12/14 07:54:37;;;;;;;32.92;25.30;;;;;;;;;;4997756;28;98669;-71
2021/12/14 07:57:06;;;;;;;32.50;26.35;;;;;;;;;;5000725;28;100035;-71
2021/12/14 07:59:35;;;;;;;31.08;25.45;;;;;;;;;;4995953;28;100260;-72
2021/12/14 08:02:11;;;;;;;32.05;25.48;;;;;;;;;;4985246;28;100081;-71
2021/12/14 08:04:39;;;;;;;33.63;25.02;;;;;;;;;;4994115;28;99311;-72
2021/12/14 08:07:05;;;;;;;33.17;25.70;;;;;;;;;;5009657;28;99257;-72
2021/12/14 08:09:47;;;;;;;32.78;25.45;;;;;;;;;;4999005;28;100624;-72
2021/12/14 08:12:49;;;;;;;29.58;24.52;;;;;;;;;;4981454;28;100186;-72
2021/12/14 08:15:15;;;;;;;30.00;24.05;;;;;;;;;;4983722;28;101019;-72
2021/12/14 08:17:42;;;;;;;30.15;24.10;;;;;;;;;;4995558;28;100509;-72
2021/12/14 08:20:12;;;;;;;29.67;25.08;;;;;;;;;;4988998;28;100674;-72
2021/12/14 08:22:53;;;;;;;29.17;24.70;;;;;;;;;;4987265;28;100304;-72
2021/12/14 08:25:24;;;;;;;28.23;24.55;;;;;;;;;;4988644;28;100405;-72
2021/12/14 08:28:01;;;;;;;29.85;24.10;;;;;;;;;;4983363;28;99020;-74
2021/12/14 08:30:29;;;;;;;35.50;25.50;;;;;;;;;;5018169;27;99471;-72
2021/12/14 08:32:56;;;;;;;29.75;23.75;;;;;;;;;;4993323;28;100589;-73
2021/12/14 08:35:23;;;;;;;34.67;25.23;;;;;;;;;;4999784;28;98668;-70
2021/12/14 08:37:53;;;;;;;31.50;24.40;;;;;;;;;;5002179;28;98973;-72
2021/12/14 08:40:25;;;;;;;30.23;24.02;;;;;;;;;;4988793;28;99278;-72
2021/12/14 08:43:05;;;;;;;27.50;23.90;;;;;;;;;;4996283;28;99142;-72
2021/12/14 08:45:40;;;;;;;28.95;24.00;;;;;;;;;;4990065;28;99260;-72
2021/12/14 08:48:09;;;;;;;32.45;25.23;;;;;;;;;;4996760;28;100025;-72
2021/12/14 08:50:45;;;;;;;29.15;23.70;;;;;;;;;;5009737;28;99335;-72
2021/12/14 08:53:12;;;;;;;27.10;22.60;;;;;;;;;;4984052;28;100141;-72
2021/12/14 08:55:43;;;;;;;29.70;25.42;;;;;;;;;;4985062;28;100309;-73
2021/12/14 08:58:09;;;;;;;31.40;25.00;;;;;;;;;;4972377;28;100118;-72
2021/12/14 09:00:38;;;;;;;32.55;23.92;;;;;;;;;;4979495;28;100316;-72
2021/12/14 09:03:10;;;;;;;30.65;24.90;;;;;;;;;;4988814;28;98903;-72
2021/12/14 09:05:42;;;;;;;26.20;22.92;;;;;;;;;;4987359;28;100033;-72
2021/12/14 09:08:09;;;;;;;29.90;24.43;;;;;;;;;;4974652;28;100860;-72
2021/12/14 09:10:37;;;;;;;31.95;24.52;;;;;;;;;;4983799;28;99615;-71
2021/12/14 09:13:06;;;;;;;32.88;24.65;;;;;;;;;;4987465;28;99903;-73
2021/12/14 09:15:35;;;;;;;30.98;26.35;;;;;;;;;;4979982;28;98070;-72
2021/12/14 09:18:02;;;;;;;33.28;25.40;;;;;;;;;;4987999;28;99690;-72
2021/12/14 09:20:28;;;;;;;36.03;27.15;;;;;;;;;;4991916;28;99691;-72
2021/12/14 09:22:57;;;;;;;34.15;26.15;;;;;;;;;;4988867;28;100176;-72
2021/12/14 09:25:26;;;;;;;37.45;27.50;;;;;;;;;;4979510;28;100319;-73
2021/12/14 09:27:53;;;;;;;35.67;26.60;;;;;;;;;;4985849;28;100534;-73
2021/12/14 09:30:22;;;;;;;36.63;29.35;;;;;;;;;;4993171;28;98855;-73
2021/12/14 09:32:48;;;;;;;32.53;26.60;;;;;;;;;;4986666;28;100136;-73
2021/12/14 09:35:17;;;;;;;35.15;26.48;;;;;;;;;;4984590;28;99857;-76
2021/12/14 09:37:46;;;;;;;41.53;26.42;;;;;;;;;;5000147;28;100353;-74
2021/12/14 09:40:19;;;;;;;32.63;26.25;;;;;;;;;;4988836;28;99491;-74
2021/12/14 09:42:45;;;;;;;40.33;28.73;;;;;;;;;;4989610;27;98772;-71
2021/12/14 09:45:17;;;;;;;39.10;28.60;;;;;;;;;;4987781;28;100116;-73
2021/12/14 09:47:44;;;;;;;37.83;28.05;;;;;;;;;;4967990;28;100955;-72
2021/12/14 09:50:12;;;;;;;39.45;28.75;;;;;;;;;;4971581;28;98584;-72
2021/12/14 09:52:41;;;;;;;36.38;28.33;;;;;;;;;;4999567;28;100074;-72
2021/12/14 09:55:09;;;;;;;42.13;29.90;;;;;;;;;;5009347;28;100328;-72
2021/12/14 09:57:42;;;;;;;42.10;30.38;;;;;;;;;;4991447;28;100071;-72
2021/12/14 10:00:12;;;;;;;50.05;31.48;;;;;;;;;;4998856;28;100688;-72
2021/12/14 10:02:40;;;;;;;49.38;31.02;;;;;;;;;;4983600;28;98605;-74
2021/12/14 10:05:13;;;;;;;47.35;33.50;;;;;;;;;;4984344;28;100242;-71
2021/12/14 10:07:39;;;;;;;46.05;32.88;;;;;;;;;;5002124;28;100410;-71
2021/12/14 10:10:07;;;;;;;51.30;32.08;;;;;;;;;;4995378;28;99077;-71
2021/12/14 10:12:51;;;;;;;52.67;32.45;;;;;;;;;;4984490;28;99812;-71
2021/12/14 10:15:17;;;;;;;46.90;32.63;;;;;;;;;;4979322;28;100060;-72
2021/12/14 10:17:45;;;;;;;54.65;32.50;;;;;;;;;;4981871;28;100507;-73
2021/12/14 10:20:13;;;;;;;52.30;33.25;;;;;;;;;;4977934;28;100375;-73
2021/12/14 10:22:39;;;;;;;47.40;33.40;;;;;;;;;;4979758;28;99746;-72
2021/12/14 10:25:09;;;;;;;52.70;33.97;;;;;;;;;;4983179;28;100095;-72
2021/12/14 10:27:36;;;;;;;28.27;21.83;;;;;;;;;;4987085;28;99830;-71
2021/12/14 10:30:12;;;;;;;45.53;31.55;;;;;;;;;;4989695;28;97857;-71
2021/12/14 10:32:39;;;;;;;50.05;32.13;;;;;;;;;;4967272;28;98988;-71
2021/12/14 10:35:09;;;;;;;45.45;32.88;;;;;;;;;;4981475;28;100428;-72
2021/12/14 10:38:10;;;;;;;46.35;32.25;;;;;;;;;;4991253;28;99468;-71
2021/12/14 10:43:25;;;;;;;49.72;33.60;;;;;;;;;;4989455;28;98572;-72
2021/12/14 10:45:59;;;;;;;50.15;35.33;;;;;;;;;;4981240;28;100493;-73
2021/12/14 10:48:30;;;;;;;48.17;35.30;;;;;;;;;;4972986;28;100414;-73
2021/12/14 10:50:57;;;;;;;54.58;36.60;;;;;;;;;;4970179;28;98670;-73
2021/12/14 10:53:25;;;;;;;58.40;34.03;;;;;;;;;;4974127;28;100057;-72
2021/12/14 10:55:54;;;;;;;54.67;37.00;;;;;;;;;;4996960;28;99576;-73
2021/12/14 10:58:21;;;;;;;57.53;36.03;;;;;;;;;;4996156;28;98962;-73
2021/12/14 11:00:50;;;;;;;55.65;36.28;;;;;;;;;;4998272;28;100653;-73
2021/12/14 11:03:19;;;;;;;53.42;36.83;;;;;;;;;;4984891;28;99338;-73
2021/12/14 11:05:51;;;;;;;53.58;36.80;;;;;;;;;;4979721;28;100829;-73
2021/12/14 11:08:35;;;;;;;67.07;38.28;;;;;;;;;;4980488;28;100580;-73
2021/12/14 11:11:02;;;;;;;57.33;36.67;;;;;;;;;;4981632;28;100206;-72
2021/12/14 11:13:36;;;;;;;59.83;36.85;;;;;;;;;;5004983;28;100117;-72
2021/12/14 11:16:05;;;;;;;68.88;39.83;;;;;;;;;;4988983;28;100238;-72
2021/12/14 11:18:32;;;;;;;56.53;39.45;;;;;;;;;;4985324;28;99059;-72
2021/12/14 11:21:07;;;;;;;65.60;39.63;;;;;;;;;;4987394;28;99483;-72
2021/12/14 11:23:36;;;;;;;62.78;40.53;;;;;;;;;;4975418;28;100634;-73
2021/12/14 11:26:05;;;;;;;60.83;38.47;;;;;;;;;;4975629;27;103656;-72
2021/12/14 11:28:37;;;;;;;63.15;40.63;;;;;;;;;;4975174;28;101275;-72
2021/12/14 11:31:06;;;;;;;69.37;42.00;;;;;;;;;;4999168;28;98542;-72
2021/12/14 11:33:41;;;;;;;64.65;41.35;;;;;;;;;;4994154;28;99221;-73
2021/12/14 11:36:11;;;;;;;66.45;42.20;;;;;;;;;;4997510;28;99457;-73
2021/12/14 11:38:48;;;;;;;69.45;41.40;;;;;;;;;;4997674;28;99090;-72
2021/12/14 11:41:27;;;;;;;64.47;39.63;;;;;;;;;;4995901;28;100119;-72
2021/12/14 11:43:59;;;;;;;68.65;40.00;;;;;;;;;;5005876;28;99581;-73
2021/12/14 11:46:27;;;;;;;71.23;42.20;;;;;;;;;;5008634;28;97930;-74
2021/12/14 11:48:55;;;;;;;71.40;42.08;;;;;;;;;;5008846;28;100406;-73
2021/12/14 11:51:22;;;;;;;68.85;43.72;;;;;;;;;;4984351;28;99151;-72
2021/12/14 11:53:50;;;;;;;60.65;40.88;;;;;;;;;;4995421;28;101671;-72
2021/12/14 11:56:18;;;;;;;68.70;41.33;;;;;;;;;;4987233;28;100447;-72
2021/12/14 11:58:56;;;;;;;70.00;41.95;;;;;;;;;;4998177;28;99040;-72
2021/12/14 12:01:25;;;;;;;68.43;42.15;;;;;;;;;;4998673;28;100060;-71
2021/12/14 12:03:53;;;;;;;71.82;42.63;;;;;;;;;;4994771;28;100587;-71
2021/12/14 12:06:45;;;;;;;73.25;41.35;;;;;;;;;;4977475;28;98623;-71
2021/12/14 12:09:29;;;;;;;73.60;42.63;;;;;;;;;;5001471;28;99472;-72
2021/12/14 12:12:01;;;;;;;72.57;42.17;;;;;;;;;;5000994;28;97839;-71
2021/12/14 12:14:33;;;;;;;67.28;41.22;;;;;;;;;;4998301;28;100298;-71
2021/12/14 12:17:12;;;;;;;62.15;39.20;;;;;;;;;;5002683;28;99171;-72
2021/12/14 12:19:40;;;;;;;65.22;41.45;;;;;;;;;;4990364;28;99372;-71
2021/12/14 12:22:15;;;;;;;65.45;39.55;;;;;;;;;;4992653;28;101531;-72
2021/12/14 12:24:47;;;;;;;69.63;39.97;;;;;;;;;;5002228;28;100191;-72
2021/12/14 12:27:19;;;;;;;67.20;38.85;;;;;;;;;;4987317;28;101015;-72
2021/12/14 12:29:45;;;;;;;63.72;38.50;;;;;;;;;;4997240;28;101417;-72
2021/12/14 12:32:23;;;;;;;64.53;40.42;;;;;;;;;;4986557;28;99499;-72
2021/12/14 12:34:50;;;;;;;59.47;36.83;;;;;;;;;;4998510;28;100140;-72
2021/12/14 12:37:32;;;;;;;62.03;37.63;;;;;;;;;;5009315;28;99877;-72
2021/12/14 12:39:59;;;;;;;59.47;37.55;;;;;;;;;;5000348;28;98992;-70
2021/12/14 12:42:26;;;;;;;64.15;37.72;;;;;;;;;;4975452;28;100393;-71
2021/12/14 12:44:52;;;;;;;62.47;38.53;;;;;;;;;;4988965;27;100096;-71
2021/12/14 12:47:22;;;;;;;65.13;37.95;;;;;;;;;;4986316;28;99843;-71
2021/12/14 12:49:53;;;;;;;65.95;39.85;;;;;;;;;;5003218;28;100476;-71
2021/12/14 12:52:19;;;;;;;64.10;36.78;;;;;;;;;;5001892;28;100610;-70
2021/12/14 12:55:01;;;;;;;60.90;38.13;;;;;;;;;;4996597;28;99251;-70
2021/12/14 12:57:55;;;;;;;56.03;35.70;;;;;;;;;;5003713;28;99480;-70
2021/12/14 13:00:42;;;;;;;56.65;34.35;;;;;;;;;;4996267;28;98646;-71
2021/12/14 13:03:31;;;;;;;51.42;35.10;;;;;;;;;;5000276;28;99961;-71
2021/12/14 13:06:05;;;;;;;54.05;33.17;;;;;;;;;;5008979;28;99524;-71
2021/12/14 13:08:37;;;;;;;52.42;34.28;;;;;;;;;;5005916;28;98750;-71
2021/12/14 13:11:06;;;;;;;56.95;35.75;;;;;;;;;;5009096;28;99248;-71
2021/12/14 13:13:35;;;;;;;57.40;35.05;;;;;;;;;;5005469;28;100333;-71
2021/12/14 13:16:10;;;;;;;53.00;34.80;;;;;;;;;;4997788;28;98564;-71
2021/12/14 13:18:37;;;;;;;53.78;36.75;;;;;;;;;;4992520;28;100909;-72
2021/12/14 13:21:09;;;;;;;58.38;34.15;;;;;;;;;;5008439;28;98556;-72
2021/12/14 13:23:37;;;;;;;58.53;35.17;;;;;;;;;;5006778;28;100253;-72
2021/12/14 13:26:23;;;;;;;55.05;35.30;;;;;;;;;;5006436;28;100253;-72
2021/12/14 13:28:51;;;;;;;56.38;35.38;;;;;;;;;;5008657;28;97832;-72
2021/12/14 13:31:26;;;;;;;56.35;35.15;;;;;;;;;;4997955;28;100315;-72
2021/12/14 13:33:52;;;;;;;59.55;37.53;;;;;;;;;;4999791;28;100150;-70
2021/12/14 13:36:18;;;;;;;67.40;37.80;;;;;;;;;;5001043;28;99249;-71
2021/12/14 13:38:45;;;;;;;61.20;36.92;;;;;;;;;;5002602;28;99977;-70
2021/12/14 13:41:20;;;;;;;57.45;36.10;;;;;;;;;;4991059;28;98985;-72
2021/12/14 13:43:46;;;;;;;54.63;36.95;;;;;;;;;;4979105;28;100941;-71
2021/12/14 13:46:13;;;;;;;51.80;34.33;;;;;;;;;;4973478;28;100351;-72
2021/12/14 13:48:42;;;;;;;47.22;32.67;;;;;;;;;;4983434;28;100958;-71
2021/12/14 13:51:10;;;;;;;62.50;35.47;;;;;;;;;;4979038;28;100076;-71
2021/12/14 13:53:37;;;;;;;77.68;35.85;;;;;;;;;;4990849;28;99527;-71
2021/12/14 13:56:10;;;;;;;66.90;35.70;;;;;;;;;;4981736;28;99179;-71
2021/12/14 13:58:38;;;;;;;55.30;33.53;;;;;;;;;;4990494;28;99955;-72
2021/12/14 14:01:06;;;;;;;58.35;35.03;;;;;;;;;;4988141;28;100696;-71
2021/12/14 14:03:36;;;;;;;51.20;34.08;;;;;;;;;;4983919;28;101223;-71
2021/12/14 14:06:05;;;;;;;46.28;32.33;;;;;;;;;;4979015;28;100222;-70
2021/12/14 14:08:36;;;;;;;55.28;31.92;;;;;;;;;;4986982;28;101296;-71
2021/12/14 14:11:21;;;;;;;44.53;31.92;;;;;;;;;;4978510;28;99680;-70
2021/12/14 14:13:50;;;;;;;58.50;34.10;;;;;;;;;;4981226;28;100273;-70
2021/12/14 14:16:17;;;;;;;44.78;30.95;;;;;;;;;;4998189;28;98627;-71
2021/12/14 14:18:46;;;;;;;50.53;32.60;;;;;;;;;;4986530;28;99968;-71
2021/12/14 14:21:14;;;;;;;60.92;35.58;;;;;;;;;;4971045;28;100275;-71
2021/12/14 14:23:42;;;;;;;51.00;32.33;;;;;;;;;;4991573;28;99164;-71
2021/12/14 14:26:11;;;;;;;50.78;32.58;;;;;;;;;;5002051;28;100892;-71
2021/12/14 14:28:41;;;;;;;47.45;29.77;;;;;;;;;;4980619;28;100430;-71
2021/12/14 14:31:09;;;;;;;44.38;29.08;;;;;;;;;;4997000;28;100372;-70
2021/12/14 14:33:42;;;;;;;49.08;30.63;;;;;;;;;;4989114;28;99590;-70
2021/12/14 14:36:24;;;;;;;46.50;29.92;;;;;;;;;;4999646;28;98735;-70
2021/12/14 14:38:52;;;;;;;43.50;29.15;;;;;;;;;;5003939;28;99611;-70
2021/12/14 14:41:21;;;;;;;39.80;27.58;;;;;;;;;;4992238;28;100972;-71
2021/12/14 14:43:59;;;;;;;37.92;27.73;;;;;;;;;;4993143;28;99338;-70
2021/12/14 14:46:34;;;;;;;39.13;26.58;;;;;;;;;;4984080;28;100591;-70
2021/12/14 14:49:02;;;;;;;39.10;26.73;;;;;;;;;;4979228;28;98788;-71
2021/12/14 14:51:43;;;;;;;41.60;27.98;;;;;;;;;;4980538;28;99709;-70
2021/12/14 14:54:28;;;;;;;43.58;28.67;;;;;;;;;;4993120;28;100566;-70
2021/12/14 14:56:54;;;;;;;44.88;30.83;;;;;;;;;;4999181;28;98534;-70